createdAt,value
2022-09-30T00:01:27.294Z,9.92
2022-09-30T00:03:56.733Z,9.88
2022-09-30T00:06:24.636Z,9.83
2022-09-30T00:08:51.176Z,9.77
2022-09-30T00:11:21.078Z,9.74
2022-09-30T00:13:51.181Z,9.67
2022-09-30T00:16:18.984Z,9.57
2022-09-30T00:18:47.718Z,9.54
2022-09-30T00:21:16.018Z,9.48
2022-09-30T00:23:44.344Z,9.46
2022-09-30T00:26:13.660Z,9.41
2022-09-30T00:28:41.180Z,9.38
2022-09-30T00:31:11.742Z,9.36
2022-09-30T00:33:38.278Z,9.33
2022-09-30T00:36:07.963Z,9.32
2022-09-30T00:38:34.369Z,9.30
2022-09-30T00:41:02.761Z,9.32
2022-09-30T00:43:43.409Z,9.32
2022-09-30T00:46:21.326Z,9.30
2022-09-30T00:48:53.819Z,9.30
2022-09-30T00:51:31.274Z,9.31
2022-09-30T00:54:01.892Z,9.28
2022-09-30T00:56:34.069Z,9.26
2022-09-30T00:59:08.581Z,9.23
2022-09-30T01:01:38.659Z,9.23
2022-09-30T01:04:29.311Z,9.21
2022-09-30T01:06:55.948Z,9.20
2022-09-30T01:09:22.638Z,9.17
2022-09-30T01:11:51.497Z,9.14
2022-09-30T01:14:24.936Z,9.09
2022-09-30T01:17:06.600Z,9.08
2022-09-30T01:19:42.760Z,9.06
2022-09-30T01:22:36.775Z,9.04
2022-09-30T01:25:47.307Z,9.02
2022-09-30T01:28:44.007Z,8.99
2022-09-30T01:31:35.023Z,8.98
2022-09-30T01:34:15.151Z,8.97
2022-09-30T01:36:44.454Z,8.89
2022-09-30T01:39:51.993Z,8.87
2022-09-30T01:42:33.757Z,8.81
2022-09-30T01:45:10.172Z,8.76
2022-09-30T01:47:46.447Z,8.72
2022-09-30T01:50:21.854Z,8.71
2022-09-30T01:53:10.953Z,8.67
2022-09-30T01:55:45.774Z,8.68
2022-09-30T01:58:26.621Z,8.72
2022-09-30T02:01:01.063Z,8.73
2022-09-30T02:03:45.605Z,8.76
2022-09-30T02:06:17.885Z,8.79
2022-09-30T02:08:46.959Z,8.82
2022-09-30T02:11:18.306Z,9.01
2022-09-30T02:14:11.433Z,8.96
2022-09-30T02:16:42.642Z,9.06
2022-09-30T02:19:15.266Z,9.11
2022-09-30T02:21:45.873Z,9.22
2022-09-30T02:24:18.757Z,9.26
2022-09-30T02:26:49.050Z,9.32
2022-09-30T02:29:31.729Z,9.34
2022-09-30T02:32:06.135Z,9.38
2022-09-30T02:34:37.625Z,9.38
2022-09-30T02:37:13.455Z,9.42
2022-09-30T02:40:07.220Z,9.41
2022-09-30T02:42:37.294Z,9.47
2022-09-30T02:48:43.055Z,9.47
2022-09-30T02:51:21.295Z,9.47
2022-09-30T02:54:10.177Z,9.48
2022-09-30T02:56:57.719Z,9.44
2022-09-30T02:59:26.431Z,9.42
2022-09-30T03:01:53.060Z,9.40
2022-09-30T03:04:25.571Z,9.39
2022-09-30T03:06:52.161Z,9.35
2022-09-30T03:09:21.917Z,9.33
2022-09-30T03:11:52.823Z,9.32
2022-09-30T03:14:39.556Z,9.30
2022-09-30T03:17:22.322Z,9.32
2022-09-30T03:20:10.072Z,9.30
2022-09-30T03:22:51.845Z,9.28
2022-09-30T03:25:50.288Z,9.29
2022-09-30T03:28:19.649Z,9.27
2022-09-30T03:30:53.279Z,9.28
2022-09-30T03:33:25.256Z,9.23
2022-09-30T03:36:39.681Z,9.14
2022-09-30T03:39:28.615Z,9.09
2022-09-30T03:42:07.581Z,9.08
2022-09-30T03:44:59.209Z,9.04
2022-09-30T03:47:33.511Z,8.94
2022-09-30T03:50:06.371Z,8.90
2022-09-30T03:52:33.803Z,8.88
2022-09-30T03:55:03.442Z,8.85
2022-09-30T03:57:30.713Z,8.79
2022-09-30T03:59:58.035Z,8.72
2022-09-30T04:02:27.707Z,8.64
2022-09-30T04:04:54.169Z,8.63
2022-09-30T04:07:23.237Z,8.48
2022-09-30T04:09:49.668Z,8.45
2022-09-30T04:12:16.453Z,8.38
2022-09-30T04:14:42.861Z,8.32
2022-09-30T04:17:09.833Z,8.23
2022-09-30T04:19:39.990Z,8.22
2022-09-30T04:22:09.865Z,8.17
2022-09-30T04:24:36.631Z,8.15
2022-09-30T04:27:05.962Z,8.13
2022-09-30T04:29:32.352Z,8.11
2022-09-30T04:31:59.011Z,8.09
2022-09-30T04:34:25.460Z,8.06
2022-09-30T04:36:51.876Z,8.06
2022-09-30T04:39:20.682Z,8.07
2022-09-30T04:41:47.189Z,8.08
2022-09-30T04:44:15.925Z,8.12
2022-09-30T04:46:44.619Z,8.14
2022-09-30T04:49:11.048Z,8.14
2022-09-30T04:51:43.843Z,8.18
2022-09-30T04:54:13.123Z,8.13
2022-09-30T04:56:39.667Z,8.12
2022-09-30T04:59:06.268Z,8.13
2022-09-30T05:01:32.763Z,8.14
2022-09-30T05:04:01.823Z,8.11
2022-09-30T05:06:28.805Z,8.17
2022-09-30T05:08:55.284Z,8.15
2022-09-30T05:11:25.543Z,8.12
2022-09-30T05:13:55.220Z,8.12
2022-09-30T05:16:22.042Z,8.11
2022-09-30T05:18:49.453Z,8.12
2022-09-30T05:21:18.205Z,8.08
2022-09-30T05:23:45.010Z,8.03
2022-09-30T05:26:12.788Z,7.95
2022-09-30T05:28:40.811Z,7.93
2022-09-30T05:31:07.501Z,7.88
2022-09-30T05:33:36.171Z,7.85
2022-09-30T05:36:11.899Z,7.82
2022-09-30T05:38:38.250Z,7.80
2022-09-30T05:41:14.866Z,7.75
2022-09-30T05:43:45.274Z,7.75
2022-09-30T05:46:11.719Z,7.71
2022-09-30T05:48:38.153Z,7.72
2022-09-30T05:51:04.700Z,7.68
2022-09-30T05:53:32.005Z,7.72
2022-09-30T05:55:59.381Z,7.75
2022-09-30T05:58:26.222Z,7.80
2022-09-30T06:00:53.006Z,7.78
2022-09-30T06:03:21.770Z,7.85
2022-09-30T06:05:48.384Z,7.91
2022-09-30T06:08:15.725Z,8.02
2022-09-30T06:10:43.975Z,8.12
2022-09-30T06:13:12.879Z,8.33
2022-09-30T06:15:41.281Z,8.39
2022-09-30T06:18:12.770Z,8.61
2022-09-30T06:20:41.443Z,8.72
2022-09-30T06:23:10.224Z,8.82
2022-09-30T06:25:36.598Z,8.93
2022-09-30T06:28:05.274Z,8.96
2022-09-30T06:30:35.015Z,8.97
2022-09-30T06:33:04.007Z,8.98
2022-09-30T06:35:30.352Z,9.01
2022-09-30T06:37:56.775Z,9.04
2022-09-30T06:40:26.015Z,8.98
2022-09-30T06:43:01.289Z,8.92
2022-09-30T06:45:32.952Z,8.90
2022-09-30T06:48:04.089Z,8.89
2022-09-30T06:50:31.775Z,8.86
2022-09-30T06:53:02.270Z,8.90
2022-09-30T06:55:30.153Z,8.89
2022-09-30T06:57:59.726Z,8.91
2022-09-30T07:00:27.774Z,8.97
2022-09-30T07:02:56.518Z,9.04
2022-09-30T07:05:25.671Z,9.10
2022-09-30T07:07:53.598Z,9.15
2022-09-30T07:10:21.014Z,9.26
2022-09-30T07:12:56.030Z,9.27
2022-09-30T07:15:24.900Z,9.33
2022-09-30T07:17:52.993Z,9.33
2022-09-30T07:20:19.738Z,9.31
2022-09-30T07:22:46.320Z,9.31
2022-09-30T07:25:14.128Z,9.31
2022-09-30T07:27:41.173Z,9.38
2022-09-30T07:30:14.171Z,9.50
2022-09-30T07:32:47.918Z,9.57
2022-09-30T07:35:16.837Z,9.78
2022-09-30T07:37:43.199Z,9.82
2022-09-30T07:40:10.113Z,9.86
2022-09-30T07:42:39.433Z,9.94
2022-09-30T07:45:06.424Z,10.01
2022-09-30T07:47:32.869Z,10.11
2022-09-30T07:49:59.568Z,10.25
2022-09-30T07:52:25.935Z,10.37
2022-09-30T07:54:52.420Z,10.55
2022-09-30T07:57:18.879Z,10.63
2022-09-30T07:59:45.307Z,10.48
2022-09-30T08:02:16.184Z,10.21
2022-09-30T08:04:44.302Z,10.19
2022-09-30T08:07:15.181Z,10.18
2022-09-30T08:09:42.173Z,10.31
2022-09-30T08:12:11.013Z,10.36
2022-09-30T08:14:37.467Z,10.41
2022-09-30T08:17:04.199Z,10.55
2022-09-30T08:19:33.478Z,10.49
2022-09-30T08:21:59.973Z,10.59
2022-09-30T08:24:29.549Z,10.64
2022-09-30T08:26:56.371Z,10.70
2022-09-30T08:32:11.834Z,10.77
2022-09-30T08:34:38.231Z,10.80
2022-09-30T08:37:09.138Z,10.88
2022-09-30T08:39:38.901Z,10.88
2022-09-30T08:42:37.420Z,11.06
2022-09-30T08:45:24.624Z,11.10
2022-09-30T08:48:13.620Z,11.21
2022-09-30T08:51:20.907Z,11.28
2022-09-30T08:53:48.448Z,11.33
2022-09-30T08:56:25.381Z,11.38
2022-09-30T08:58:57.969Z,11.33
2022-09-30T09:01:40.740Z,11.34
2022-09-30T09:04:07.948Z,11.38
2022-09-30T09:06:46.843Z,11.49
2022-09-30T09:09:36.470Z,11.58
2022-09-30T09:12:15.676Z,11.57
2022-09-30T09:14:55.375Z,11.60
2022-09-30T09:17:44.443Z,11.64
2022-09-30T09:20:16.137Z,11.75
2022-09-30T09:22:45.948Z,11.87
2022-09-30T09:25:20.091Z,11.85
2022-09-30T09:27:52.876Z,11.79
2022-09-30T09:30:25.204Z,11.94
2022-09-30T09:32:55.308Z,11.94
2022-09-30T09:35:29.933Z,12.00
2022-09-30T09:38:35.774Z,12.01
2022-09-30T09:41:21.346Z,11.95
2022-09-30T09:44:09.394Z,11.87
2022-09-30T09:47:05.275Z,11.89
2022-09-30T09:49:41.641Z,11.77
2022-09-30T09:52:11.627Z,11.72
2022-09-30T09:54:46.735Z,11.77
2022-09-30T09:57:18.013Z,11.94
2022-09-30T10:02:31.919Z,12.27
2022-09-30T10:05:03.395Z,12.37
2022-09-30T10:07:34.433Z,12.50
2022-09-30T10:10:09.248Z,12.64
2022-09-30T10:12:35.795Z,12.76
2022-09-30T10:15:20.996Z,12.93
2022-09-30T10:17:53.822Z,13.06
2022-09-30T10:20:33.977Z,13.24
2022-09-30T10:23:07.781Z,13.17
2022-09-30T10:25:34.512Z,13.38
2022-09-30T10:28:03.505Z,13.36
2022-09-30T10:30:39.071Z,13.43
2022-09-30T10:33:16.066Z,13.48
2022-09-30T10:36:03.307Z,13.70
2022-09-30T10:38:34.735Z,13.80
2022-09-30T10:41:06.532Z,13.97
2022-09-30T10:43:49.442Z,14.25
2022-09-30T10:46:27.250Z,14.25
2022-09-30T10:48:56.719Z,14.15
2022-09-30T10:51:28.860Z,14.16
2022-09-30T10:53:56.577Z,14.24
2022-09-30T10:56:44.668Z,14.33
2022-09-30T10:59:29.048Z,14.50
2022-09-30T11:02:06.153Z,14.60
2022-09-30T11:04:38.457Z,14.71
2022-09-30T11:07:39.086Z,14.88
2022-09-30T11:10:08.249Z,14.96
2022-09-30T11:12:48.658Z,14.97
2022-09-30T11:15:29.373Z,15.15
2022-09-30T11:18:19.160Z,14.98
2022-09-30T11:20:56.806Z,15.11
2022-09-30T11:23:44.503Z,15.22
2022-09-30T11:26:49.222Z,15.36
2022-09-30T11:29:44.773Z,15.54
2022-09-30T11:32:48.553Z,15.55
2022-09-30T11:35:24.382Z,15.56
2022-09-30T11:38:12.311Z,15.58
2022-09-30T11:41:07.349Z,15.37
2022-09-30T11:43:52.314Z,15.56
2022-09-30T11:46:36.827Z,15.66
2022-09-30T11:49:30.737Z,15.70
2022-09-30T11:52:02.969Z,15.79
2022-09-30T11:54:45.528Z,15.93
2022-09-30T11:57:40.866Z,16.05
2022-09-30T12:00:25.369Z,16.18
2022-09-30T12:02:54.497Z,16.28
2022-09-30T12:05:20.965Z,16.56
2022-09-30T12:07:52.108Z,16.57
2022-09-30T12:10:27.343Z,16.76
2022-09-30T12:13:00.158Z,16.87
2022-09-30T12:15:28.516Z,17.04
2022-09-30T12:18:07.514Z,17.20
2022-09-30T12:20:36.698Z,17.10
2022-09-30T12:23:24.921Z,16.80
2022-09-30T12:25:57.426Z,16.62
2022-09-30T12:29:03.554Z,16.66
2022-09-30T12:32:09.207Z,16.63
2022-09-30T12:34:48.241Z,16.48
2022-09-30T12:37:36.608Z,16.61
2022-09-30T12:40:05.885Z,16.67
2022-09-30T12:43:03.643Z,16.79
2022-09-30T12:45:54.981Z,16.76
2022-09-30T12:48:26.388Z,16.67
2022-09-30T12:50:57.842Z,16.75
2022-09-30T12:53:28.976Z,16.84
2022-09-30T12:56:04.058Z,16.88
2022-09-30T12:58:35.104Z,16.78
2022-09-30T13:01:13.164Z,16.76
2022-09-30T13:03:57.204Z,16.76
2022-09-30T13:06:23.659Z,16.73
2022-09-30T13:09:11.778Z,16.54
2022-09-30T13:11:48.271Z,16.56
2022-09-30T13:14:26.240Z,16.41
2022-09-30T13:17:01.986Z,16.42
2022-09-30T13:19:36.182Z,16.31
2022-09-30T13:22:20.578Z,16.23
2022-09-30T13:25:00.475Z,16.27
2022-09-30T13:27:43.622Z,16.24
2022-09-30T13:30:13.032Z,16.08
2022-09-30T13:32:41.099Z,16.22
2022-09-30T13:35:29.328Z,16.16
2022-09-30T13:38:14.066Z,16.02
2022-09-30T13:41:02.342Z,15.94
2022-09-30T13:43:46.370Z,15.88
2022-09-30T13:46:35.606Z,15.82
2022-09-30T13:49:17.672Z,15.76
2022-09-30T13:51:45.717Z,15.66
2022-09-30T13:54:31.739Z,15.65
2022-09-30T13:57:02.681Z,15.60
2022-09-30T13:59:31.747Z,15.58
2022-09-30T14:02:38.781Z,15.42
2022-09-30T14:05:35.080Z,15.38
2022-09-30T14:08:24.471Z,15.45
2022-09-30T14:11:05.844Z,15.28
2022-09-30T14:13:48.856Z,15.41
2022-09-30T14:16:56.683Z,15.43
2022-09-30T14:19:25.841Z,15.37
2022-09-30T14:21:58.571Z,15.32
2022-09-30T14:24:35.107Z,15.20
2022-09-30T14:27:06.366Z,15.18
2022-09-30T14:30:03.650Z,15.19
2022-09-30T14:32:31.432Z,15.22
2022-09-30T14:34:59.813Z,15.12
2022-09-30T14:37:30.781Z,15.06
2022-09-30T14:39:58.282Z,14.97
2022-09-30T14:42:36.197Z,15.02
2022-09-30T14:45:04.895Z,14.99
2022-09-30T14:47:47.872Z,14.88
2022-09-30T14:50:18.230Z,14.88
2022-09-30T14:52:47.343Z,14.83
2022-09-30T14:55:30.425Z,14.74
2022-09-30T14:58:21.566Z,14.80
2022-09-30T15:00:56.452Z,14.79
2022-09-30T15:03:22.907Z,14.83
2022-09-30T15:05:49.345Z,14.66
2022-09-30T15:08:20.578Z,14.56
2022-09-30T15:10:54.626Z,14.45
2022-09-30T15:13:26.625Z,14.40
2022-09-30T15:15:52.990Z,14.46
2022-09-30T15:18:28.417Z,14.37
2022-09-30T15:20:57.367Z,14.25
2022-09-30T15:23:30.952Z,14.22
2022-09-30T15:26:02.318Z,14.21
2022-09-30T15:28:28.885Z,14.10
2022-09-30T15:30:58.225Z,14.18
2022-09-30T15:33:32.260Z,14.15
2022-09-30T15:36:24.542Z,14.10
2022-09-30T15:38:51.958Z,13.96
2022-09-30T15:41:18.530Z,14.00
2022-09-30T15:43:51.793Z,13.96
2022-09-30T15:46:26.122Z,13.96
2022-09-30T15:48:55.000Z,13.87
2022-09-30T15:51:39.041Z,13.81
2022-09-30T15:54:38.577Z,13.71
2022-09-30T15:57:37.250Z,13.62
2022-09-30T16:00:08.645Z,13.66
2022-09-30T16:02:35.829Z,13.59
2022-09-30T16:05:02.833Z,13.48
2022-09-30T16:07:34.697Z,13.48
2022-09-30T16:10:01.192Z,13.40
2022-09-30T16:12:33.585Z,13.32
2022-09-30T16:15:06.316Z,13.27
2022-09-30T16:17:35.412Z,13.21
2022-09-30T16:20:08.453Z,13.22
2022-09-30T16:22:40.686Z,13.24
2022-09-30T16:25:10.071Z,13.14
2022-09-30T16:27:37.553Z,13.08
2022-09-30T16:30:06.463Z,13.03
2022-09-30T16:32:37.529Z,12.98
2022-09-30T16:35:07.920Z,12.95
2022-09-30T16:37:35.289Z,12.85
2022-09-30T16:40:16.061Z,12.86
2022-09-30T16:42:42.520Z,12.76
2022-09-30T16:45:12.300Z,12.76
2022-09-30T16:47:38.955Z,12.69
2022-09-30T16:50:28.386Z,12.63
2022-09-30T16:52:55.183Z,12.55
2022-09-30T16:55:21.604Z,12.50
2022-09-30T16:57:48.076Z,12.42
2022-09-30T17:00:18.359Z,12.44
2022-09-30T17:02:49.057Z,12.34
2022-09-30T17:05:18.745Z,12.30
2022-09-30T17:07:51.494Z,12.21
2022-09-30T17:10:28.874Z,12.13
2022-09-30T17:12:56.685Z,12.05
2022-09-30T17:15:23.330Z,12.01
2022-09-30T17:17:49.946Z,11.93
2022-09-30T17:20:16.409Z,11.86
2022-09-30T17:22:43.068Z,11.81
2022-09-30T17:25:10.170Z,11.75
2022-09-30T17:27:37.541Z,11.72
2022-09-30T17:30:05.771Z,11.67
2022-09-30T17:32:32.157Z,11.62
2022-09-30T17:34:58.572Z,11.55
2022-09-30T17:37:26.897Z,11.51
2022-09-30T17:39:53.684Z,11.47
2022-09-30T17:42:38.740Z,11.39
2022-09-30T17:45:07.678Z,11.34
2022-09-30T17:47:39.687Z,11.28
2022-09-30T17:50:09.074Z,11.23
2022-09-30T17:52:37.967Z,11.20
2022-09-30T17:55:04.694Z,11.13
2022-09-30T17:57:38.460Z,11.11
2022-09-30T18:00:05.467Z,11.05
2022-09-30T18:02:34.552Z,10.99
2022-09-30T18:05:01.051Z,10.95
2022-09-30T18:07:28.015Z,10.92
2022-09-30T18:09:54.603Z,10.89
2022-09-30T18:12:20.968Z,10.85
2022-09-30T18:14:49.656Z,10.83
2022-09-30T18:17:16.109Z,10.77
2022-09-30T18:19:44.597Z,10.74
2022-09-30T18:22:13.425Z,10.72
2022-09-30T18:25:01.077Z,10.66
2022-09-30T18:27:33.912Z,10.62
2022-09-30T18:30:04.297Z,10.59
2022-09-30T18:32:34.340Z,10.55
2022-09-30T18:35:00.708Z,10.54
2022-09-30T18:37:28.832Z,10.47
2022-09-30T18:39:55.205Z,10.42
2022-09-30T18:42:24.257Z,10.36
2022-09-30T18:44:51.615Z,10.32
2022-09-30T18:47:18.209Z,10.27
2022-09-30T18:49:44.690Z,10.25
2022-09-30T18:52:11.676Z,10.21
2022-09-30T18:54:38.166Z,10.18
2022-09-30T18:57:05.034Z,10.14
2022-09-30T18:59:31.446Z,10.09
2022-09-30T19:01:59.605Z,10.08
2022-09-30T19:04:28.953Z,10.10
2022-09-30T19:07:01.007Z,10.06
2022-09-30T19:09:28.275Z,10.03
2022-09-30T19:11:55.555Z,10.00
2022-09-30T19:14:22.913Z,9.95
2022-09-30T19:16:51.203Z,9.91
2022-09-30T19:19:18.284Z,9.89
2022-09-30T19:21:44.794Z,9.83
2022-09-30T19:24:11.137Z,9.81
2022-09-30T19:26:38.814Z,9.98
2022-09-30T19:29:07.672Z,9.88
2022-09-30T19:31:36.170Z,9.78
2022-09-30T19:34:06.399Z,9.64
2022-09-30T19:36:43.623Z,9.61
2022-09-30T19:39:14.014Z,9.55
2022-09-30T19:41:40.513Z,9.49
2022-09-30T19:44:07.080Z,9.46
2022-09-30T19:46:35.798Z,9.46
2022-09-30T19:49:02.314Z,9.43
2022-09-30T19:51:30.645Z,9.39
2022-09-30T19:54:06.844Z,9.33
2022-09-30T19:56:36.286Z,9.33
2022-09-30T19:59:04.177Z,9.33
2022-09-30T20:01:31.232Z,9.31
2022-09-30T20:04:04.640Z,9.31
2022-09-30T20:06:35.189Z,9.31
2022-09-30T20:09:04.241Z,9.26
2022-09-30T20:11:33.743Z,9.26
2022-09-30T20:14:20.578Z,9.28
2022-09-30T20:16:49.989Z,9.26
2022-09-30T20:19:17.714Z,9.23
2022-09-30T20:21:45.881Z,9.21
2022-09-30T20:24:17.191Z,9.20
2022-09-30T20:26:47.518Z,9.17
2022-09-30T20:29:14.244Z,9.23
2022-09-30T20:31:42.827Z,9.15
2022-09-30T20:34:11.984Z,9.09
2022-09-30T20:36:40.255Z,9.09
2022-09-30T20:39:09.365Z,9.11
2022-09-30T20:41:38.005Z,9.07
2022-09-30T20:44:08.453Z,9.03
2022-09-30T20:46:35.017Z,9.09
2022-09-30T20:49:02.451Z,9.00
2022-09-30T20:51:32.650Z,9.06
2022-09-30T20:54:00.188Z,9.01
2022-09-30T20:56:39.281Z,9.00
2022-09-30T20:59:16.052Z,8.98
2022-09-30T21:01:42.620Z,8.96
2022-09-30T21:04:11.561Z,9.01
2022-09-30T21:06:37.935Z,9.03
2022-09-30T21:09:05.385Z,8.97
2022-09-30T21:11:32.233Z,8.95
2022-09-30T21:14:01.827Z,8.91
2022-09-30T21:16:29.493Z,8.88
2022-09-30T21:18:56.275Z,8.90
2022-09-30T21:21:26.901Z,8.85
2022-09-30T21:23:57.476Z,8.83
2022-09-30T21:26:24.745Z,8.85
2022-09-30T21:28:53.761Z,8.82
2022-09-30T21:31:23.032Z,8.81
2022-09-30T21:33:55.166Z,8.83
2022-09-30T21:36:22.161Z,8.83
2022-09-30T21:38:49.670Z,8.78
2022-09-30T21:41:17.229Z,8.82
2022-09-30T21:43:46.380Z,8.84
2022-09-30T21:46:15.068Z,8.85
2022-09-30T21:48:42.334Z,8.80
2022-09-30T21:51:09.973Z,8.86
2022-09-30T21:53:36.871Z,8.87
2022-09-30T21:56:04.472Z,8.83
2022-09-30T21:58:32.755Z,8.87
2022-09-30T22:01:01.768Z,8.79
2022-09-30T22:03:36.319Z,8.80
2022-09-30T22:06:07.017Z,8.76
2022-09-30T22:08:36.265Z,8.66
2022-09-30T22:11:06.900Z,8.73
2022-09-30T22:13:33.302Z,8.65
2022-09-30T22:16:09.868Z,8.64
2022-09-30T22:18:36.368Z,8.67
2022-09-30T22:21:08.941Z,8.65
2022-09-30T22:23:35.672Z,8.69
2022-09-30T22:26:18.085Z,8.64
2022-09-30T22:28:46.282Z,8.60
2022-09-30T22:31:21.123Z,8.53
2022-09-30T22:34:19.307Z,8.50
2022-09-30T22:37:04.761Z,8.52
2022-09-30T22:39:31.325Z,8.50
2022-09-30T22:41:58.504Z,8.45
2022-09-30T22:44:30.432Z,8.43
2022-09-30T22:47:02.340Z,8.42
2022-09-30T22:49:32.485Z,8.36
2022-09-30T22:52:00.816Z,8.36
2022-09-30T22:54:28.453Z,8.33
2022-09-30T22:56:55.364Z,8.34
2022-09-30T22:59:23.619Z,8.36
2022-09-30T23:01:50.195Z,8.38
2022-09-30T23:04:17.930Z,8.33
2022-09-30T23:06:49.851Z,8.35
2022-09-30T23:09:17.523Z,8.29
2022-09-30T23:11:44.313Z,8.29
2022-09-30T23:14:10.807Z,8.26
2022-09-30T23:16:37.313Z,8.26
2022-09-30T23:19:06.334Z,8.24
2022-09-30T23:21:33.708Z,8.24
2022-09-30T23:24:00.599Z,8.20
2022-09-30T23:26:28.625Z,8.17
2022-09-30T23:29:00.203Z,8.18
2022-09-30T23:31:29.361Z,8.22
2022-09-30T23:34:04.998Z,8.25
2022-09-30T23:36:37.092Z,8.25
2022-09-30T23:39:12.312Z,8.29
2022-09-30T23:41:39.293Z,8.33
2022-09-30T23:44:05.727Z,8.34
2022-09-30T23:46:32.254Z,8.36
2022-09-30T23:48:58.801Z,8.35
2022-09-30T23:51:25.330Z,8.33
2022-09-30T23:53:51.773Z,8.30
2022-09-30T23:56:19.292Z,8.32
2022-09-30T23:58:46.669Z,8.29
